sensor_id;sensor_type;location;lat;lon;timestamp;temperature;humidity
69281;SHT31;56392;51.082;17.080;2024-01-10T00:01:45;-10.42;81.89
69281;SHT31;56392;51.082;17.080;2024-01-10T00:07:10;-10.46;81.66
69281;SHT31;56392;51.082;17.080;2024-01-10T00:12:34;-10.65;81.45
69281;SHT31;56392;51.082;17.080;2024-01-10T00:17:59;-10.67;81.67
69281;SHT31;56392;51.082;17.080;2024-01-10T00:23:22;-10.72;81.95
69281;SHT31;56392;51.082;17.080;2024-01-10T00:28:47;-10.83;81.96
69281;SHT31;56392;51.082;17.080;2024-01-10T00:34:10;-10.90;82.34
69281;SHT31;56392;51.082;17.080;2024-01-10T00:39:33;-10.97;82.10
69281;SHT31;56392;51.082;17.080;2024-01-10T00:44:58;-10.93;82.64
69281;SHT31;56392;51.082;17.080;2024-01-10T00:50:21;-10.95;82.72
69281;SHT31;56392;51.082;17.080;2024-01-10T00:55:44;-10.83;83.12
69281;SHT31;56392;51.082;17.080;2024-01-10T01:01:09;-10.77;83.26
69281;SHT31;56392;51.082;17.080;2024-01-10T01:06:32;-10.95;82.92
69281;SHT31;56392;51.082;17.080;2024-01-10T01:11:56;-10.99;83.14
69281;SHT31;56392;51.082;17.080;2024-01-10T01:17:22;-11.03;82.98
69281;SHT31;56392;51.082;17.080;2024-01-10T01:22:45;-11.04;82.86
69281;SHT31;56392;51.082;17.080;2024-01-10T01:28:08;-11.03;82.98
69281;SHT31;56392;51.082;17.080;2024-01-10T01:33:35;-11.14;83.59
69281;SHT31;56392;51.082;17.080;2024-01-10T01:39:00;-11.13;83.68
69281;SHT31;56392;51.082;17.080;2024-01-10T01:44:23;-11.03;83.61
69281;SHT31;56392;51.082;17.080;2024-01-10T01:49:48;-11.04;83.42
69281;SHT31;56392;51.082;17.080;2024-01-10T01:55:11;-11.01;83.52
69281;SHT31;56392;51.082;17.080;2024-01-10T02:00:34;-11.03;83.44
69281;SHT31;56392;51.082;17.080;2024-01-10T02:05:59;-11.16;83.54
69281;SHT31;56392;51.082;17.080;2024-01-10T02:11:26;-11.17;83.70
69281;SHT31;56392;51.082;17.080;2024-01-10T02:16:49;-11.13;83.65
69281;SHT31;56392;51.082;17.080;2024-01-10T02:22:13;-11.16;83.81
69281;SHT31;56392;51.082;17.080;2024-01-10T02:27:38;-11.10;83.67
69281;SHT31;56392;51.082;17.080;2024-01-10T02:33:01;-11.14;83.09
69281;SHT31;56392;51.082;17.080;2024-01-10T02:38:24;-11.17;83.16
69281;SHT31;56392;51.082;17.080;2024-01-10T02:43:50;-11.21;83.34
69281;SHT31;56392;51.082;17.080;2024-01-10T02:49:13;-11.27;83.30
69281;SHT31;56392;51.082;17.080;2024-01-10T02:54:36;-11.26;83.32
69281;SHT31;56392;51.082;17.080;2024-01-10T03:00:00;-11.55;83.31
69281;SHT31;56392;51.082;17.080;2024-01-10T03:05:26;-11.54;83.43
69281;SHT31;56392;51.082;17.080;2024-01-10T03:10:49;-11.42;83.48
69281;SHT31;56392;51.082;17.080;2024-01-10T03:16:14;-11.48;83.54
69281;SHT31;56392;51.082;17.080;2024-01-10T03:21:37;-11.55;83.79
69281;SHT31;56392;51.082;17.080;2024-01-10T03:27:01;-11.38;83.70
69281;SHT31;56392;51.082;17.080;2024-01-10T03:32:25;-11.45;83.18
69281;SHT31;56392;51.082;17.080;2024-01-10T03:37:48;-11.58;83.48
69281;SHT31;56392;51.082;17.080;2024-01-10T03:43:11;-11.66;83.95
69281;SHT31;56392;51.082;17.080;2024-01-10T03:48:37;-11.47;83.65
69281;SHT31;56392;51.082;17.080;2024-01-10T03:54:02;-11.55;82.55
69281;SHT31;56392;51.082;17.080;2024-01-10T03:59:25;-11.47;83.01
69281;SHT31;56392;51.082;17.080;2024-01-10T04:04:49;-11.49;82.63
69281;SHT31;56392;51.082;17.080;2024-01-10T04:10:13;-11.45;82.82
69281;SHT31;56392;51.082;17.080;2024-01-10T04:15:36;-11.52;82.39
69281;SHT31;56392;51.082;17.080;2024-01-10T04:21:01;-11.58;82.51
69281;SHT31;56392;51.082;17.080;2024-01-10T04:26:24;-11.51;82.61
69281;SHT31;56392;51.082;17.080;2024-01-10T04:31:47;-11.55;82.24
69281;SHT31;56392;51.082;17.080;2024-01-10T04:37:11;-11.72;82.38
69281;SHT31;56392;51.082;17.080;2024-01-10T04:42:35;-11.65;82.85
69281;SHT31;56392;51.082;17.080;2024-01-10T04:47:58;-11.62;82.72
69281;SHT31;56392;51.082;17.080;2024-01-10T04:53:22;-11.70;82.25
69281;SHT31;56392;51.082;17.080;2024-01-10T04:58:45;-11.79;82.35
69281;SHT31;56392;51.082;17.080;2024-01-10T05:04:10;-11.70;82.49
69281;SHT31;56392;51.082;17.080;2024-01-10T05:09:36;-11.70;82.50
69281;SHT31;56392;51.082;17.080;2024-01-10T05:14:59;-11.75;82.40
69281;SHT31;56392;51.082;17.080;2024-01-10T05:20:22;-11.83;82.30
69281;SHT31;56392;51.082;17.080;2024-01-10T05:25:47;-11.87;82.69
69281;SHT31;56392;51.082;17.080;2024-01-10T05:31:10;-11.92;82.83
69281;SHT31;56392;51.082;17.080;2024-01-10T05:36:35;-11.82;82.70
69281;SHT31;56392;51.082;17.080;2024-01-10T05:41:59;-11.86;82.62
69281;SHT31;56392;51.082;17.080;2024-01-10T05:47:24;-11.78;82.72
69281;SHT31;56392;51.082;17.080;2024-01-10T05:52:47;-11.72;82.76
69281;SHT31;56392;51.082;17.080;2024-01-10T05:58:12;-11.79;82.51
69281;SHT31;56392;51.082;17.080;2024-01-10T06:03:35;-11.76;82.64
69281;SHT31;56392;51.082;17.080;2024-01-10T06:08:58;-11.96;83.10
69281;SHT31;56392;51.082;17.080;2024-01-10T06:14:22;-12.01;82.91
69281;SHT31;56392;51.082;17.080;2024-01-10T06:19:45;-12.03;83.25
69281;SHT31;56392;51.082;17.080;2024-01-10T06:25:09;-11.87;83.07
69281;SHT31;56392;51.082;17.080;2024-01-10T06:30:34;-11.79;82.66
69281;SHT31;56392;51.082;17.080;2024-01-10T06:35:57;-11.85;82.36
69281;SHT31;56392;51.082;17.080;2024-01-10T06:41:21;-12.03;82.60
69281;SHT31;56392;51.082;17.080;2024-01-10T06:46:47;-11.89;82.62
69281;SHT31;56392;51.082;17.080;2024-01-10T06:52:10;-11.82;82.38
69281;SHT31;56392;51.082;17.080;2024-01-10T06:57:33;-11.86;82.16
69281;SHT31;56392;51.082;17.080;2024-01-10T07:03:00;-12.06;82.02
69281;SHT31;56392;51.082;17.080;2024-01-10T07:08:25;-11.90;82.31
69281;SHT31;56392;51.082;17.080;2024-01-10T07:13:48;-12.05;82.22
69281;SHT31;56392;51.082;17.080;2024-01-10T07:19:16;-11.83;82.26
69281;SHT31;56392;51.082;17.080;2024-01-10T07:24:39;-12.06;82.03
69281;SHT31;56392;51.082;17.080;2024-01-10T07:30:03;-11.92;82.16
69281;SHT31;56392;51.082;17.080;2024-01-10T07:35:27;-11.78;82.23
69281;SHT31;56392;51.082;17.080;2024-01-10T07:40:50;-11.48;81.62
69281;SHT31;56392;51.082;17.080;2024-01-10T07:46:14;-11.13;80.61
69281;SHT31;56392;51.082;17.080;2024-01-10T07:51:38;-11.07;79.49
69281;SHT31;56392;51.082;17.080;2024-01-10T07:57:01;-10.91;79.09
69281;SHT31;56392;51.082;17.080;2024-01-10T08:02:24;-10.86;78.82
69281;SHT31;56392;51.082;17.080;2024-01-10T08:07:49;-10.60;78.72
69281;SHT31;56392;51.082;17.080;2024-01-10T08:13:12;-10.77;77.63
69281;SHT31;56392;51.082;17.080;2024-01-10T08:18:35;-10.63;78.43
69281;SHT31;56392;51.082;17.080;2024-01-10T08:24:00;-10.44;78.09
69281;SHT31;56392;51.082;17.080;2024-01-10T08:29:23;-10.60;77.68
69281;SHT31;56392;51.082;17.080;2024-01-10T08:34:52;-10.42;78.45
69281;SHT31;56392;51.082;17.080;2024-01-10T08:40:16;-9.90;78.17
69281;SHT31;56392;51.082;17.080;2024-01-10T08:45:39;-9.54;77.38
69281;SHT31;56392;51.082;17.080;2024-01-10T08:51:03;-9.64;76.32
69281;SHT31;56392;51.082;17.080;2024-01-10T08:56:28;-9.69;77.10
69281;SHT31;56392;51.082;17.080;2024-01-10T09:01:51;-9.52;77.83
69281;SHT31;56392;51.082;17.080;2024-01-10T09:07:14;-9.26;77.25
69281;SHT31;56392;51.082;17.080;2024-01-10T09:12:42;-8.77;76.73
69281;SHT31;56392;51.082;17.080;2024-01-10T09:18:07;-8.84;74.98
69281;SHT31;56392;51.082;17.080;2024-01-10T09:23:30;-8.51;75.15
69281;SHT31;56392;51.082;17.080;2024-01-10T09:28:55;-8.12;74.19
69281;SHT31;56392;51.082;17.080;2024-01-10T09:34:18;-8.01;74.16
69281;SHT31;56392;51.082;17.080;2024-01-10T09:39:42;-7.57;74.44
69281;SHT31;56392;51.082;17.080;2024-01-10T09:45:08;-7.89;73.67
69281;SHT31;56392;51.082;17.080;2024-01-10T09:50:33;-7.95;75.10
69281;SHT31;56392;51.082;17.080;2024-01-10T09:55:57;-7.91;74.57
69281;SHT31;56392;51.082;17.080;2024-01-10T10:01:23;-7.75;75.14
69281;SHT31;56392;51.082;17.080;2024-01-10T10:06:46;-7.57;75.29
69281;SHT31;56392;51.082;17.080;2024-01-10T10:12:10;-7.24;74.88
69281;SHT31;56392;51.082;17.080;2024-01-10T10:17:34;-7.22;74.65
69281;SHT31;56392;51.082;17.080;2024-01-10T10:22:59;-6.96;73.76
69281;SHT31;56392;51.082;17.080;2024-01-10T10:28:28;-7.13;73.37
69281;SHT31;56392;51.082;17.080;2024-01-10T10:33:54;-7.00;73.17
69281;SHT31;56392;51.082;17.080;2024-01-10T10:39:19;-6.69;73.06
69281;SHT31;56392;51.082;17.080;2024-01-10T10:44:43;-6.45;72.12
69281;SHT31;56392;51.082;17.080;2024-01-10T10:50:12;-6.21;71.41
69281;SHT31;56392;51.082;17.080;2024-01-10T10:55:36;-6.40;71.56
69281;SHT31;56392;51.082;17.080;2024-01-10T11:01:01;-6.55;72.49
69281;SHT31;56392;51.082;17.080;2024-01-10T11:06:28;-6.44;72.59
69281;SHT31;56392;51.082;17.080;2024-01-10T11:12:04;-6.23;71.79
69281;SHT31;56392;51.082;17.080;2024-01-10T11:17:48;-5.99;71.61
69281;SHT31;56392;51.082;17.080;2024-01-10T11:23:39;-5.68;71.27
69281;SHT31;56392;51.082;17.080;2024-01-10T11:29:04;-5.61;70.26
69281;SHT31;56392;51.082;17.080;2024-01-10T11:34:29;-5.69;70.15
69281;SHT31;56392;51.082;17.080;2024-01-10T11:39:54;-5.69;70.08
69281;SHT31;56392;51.082;17.080;2024-01-10T11:45:37;-5.54;70.56
69281;SHT31;56392;51.082;17.080;2024-01-10T11:51:00;-5.68;69.84
69281;SHT31;56392;51.082;17.080;2024-01-10T11:56:38;-5.54;69.26
69281;SHT31;56392;51.082;17.080;2024-01-10T12:02:01;-5.48;69.09
69281;SHT31;56392;51.082;17.080;2024-01-10T12:07:25;-5.48;69.21
69281;SHT31;56392;51.082;17.080;2024-01-10T12:12:51;-5.25;69.65
69281;SHT31;56392;51.082;17.080;2024-01-10T12:18:16;-4.99;69.13
69281;SHT31;56392;51.082;17.080;2024-01-10T12:23:39;-4.94;68.90
69281;SHT31;56392;51.082;17.080;2024-01-10T12:29:05;-4.86;68.86
69281;SHT31;56392;51.082;17.080;2024-01-10T12:34:28;-4.82;68.87
69281;SHT31;56392;51.082;17.080;2024-01-10T12:39:52;-4.69;69.11
69281;SHT31;56392;51.082;17.080;2024-01-10T12:45:23;-4.73;68.92
69281;SHT31;56392;51.082;17.080;2024-01-10T12:50:47;-4.68;68.84
69281;SHT31;56392;51.082;17.080;2024-01-10T12:56:11;-4.59;68.98
69281;SHT31;56392;51.082;17.080;2024-01-10T13:01:37;-4.55;68.85
69281;SHT31;56392;51.082;17.080;2024-01-10T13:07:00;-4.55;68.74
69281;SHT31;56392;51.082;17.080;2024-01-10T13:12:23;-4.53;68.63
69281;SHT31;56392;51.082;17.080;2024-01-10T13:17:48;-4.52;69.12
69281;SHT31;56392;51.082;17.080;2024-01-10T13:23:12;-4.45;69.24
69281;SHT31;56392;51.082;17.080;2024-01-10T13:28:37;-4.45;69.39
69281;SHT31;56392;51.082;17.080;2024-01-10T13:34:02;-4.46;68.75
69281;SHT31;56392;51.082;17.080;2024-01-10T13:39:26;-4.52;68.92
69281;SHT31;56392;51.082;17.080;2024-01-10T13:44:49;-4.48;69.74
69281;SHT31;56392;51.082;17.080;2024-01-10T13:50:15;-4.49;69.40
69281;SHT31;56392;51.082;17.080;2024-01-10T13:55:37;-4.48;70.26
69281;SHT31;56392;51.082;17.080;2024-01-10T14:01:00;-4.49;70.14
69281;SHT31;56392;51.082;17.080;2024-01-10T14:06:28;-4.51;70.16
69281;SHT31;56392;51.082;17.080;2024-01-10T14:11:51;-4.62;69.54
69281;SHT31;56392;51.082;17.080;2024-01-10T14:17:14;-4.65;70.00
69281;SHT31;56392;51.082;17.080;2024-01-10T14:22:39;-4.77;69.73
69281;SHT31;56392;51.082;17.080;2024-01-10T14:28:04;-4.80;70.73
69281;SHT31;56392;51.082;17.080;2024-01-10T14:33:27;-4.93;71.33
69281;SHT31;56392;51.082;17.080;2024-01-10T14:38:52;-4.99;71.11
69281;SHT31;56392;51.082;17.080;2024-01-10T14:44:16;-5.05;70.98
69281;SHT31;56392;51.082;17.080;2024-01-10T14:49:40;-5.18;71.38
69281;SHT31;56392;51.082;17.080;2024-01-10T14:55:05;-5.28;72.87
69281;SHT31;56392;51.082;17.080;2024-01-10T15:00:28;-5.41;72.87
69281;SHT31;56392;51.082;17.080;2024-01-10T15:05:51;-5.52;73.18
69281;SHT31;56392;51.082;17.080;2024-01-10T15:11:16;-5.59;73.82
69281;SHT31;56392;51.082;17.080;2024-01-10T15:16:40;-5.73;74.59
69281;SHT31;56392;51.082;17.080;2024-01-10T15:22:03;-5.78;74.79
69281;SHT31;56392;51.082;17.080;2024-01-10T15:27:28;-5.82;74.80
69281;SHT31;56392;51.082;17.080;2024-01-10T15:32:52;-5.93;75.06
69281;SHT31;56392;51.082;17.080;2024-01-10T15:38:15;-6.07;75.77
69281;SHT31;56392;51.082;17.080;2024-01-10T15:43:39;-6.17;76.39
69281;SHT31;56392;51.082;17.080;2024-01-10T15:49:02;-6.31;76.77
69281;SHT31;56392;51.082;17.080;2024-01-10T15:54:25;-6.33;76.70
69281;SHT31;56392;51.082;17.080;2024-01-10T15:59:51;-6.42;77.09
69281;SHT31;56392;51.082;17.080;2024-01-10T16:05:14;-6.51;77.92
69281;SHT31;56392;51.082;17.080;2024-01-10T16:10:38;-6.61;78.39
69281;SHT31;56392;51.082;17.080;2024-01-10T16:16:05;-6.71;78.02
69281;SHT31;56392;51.082;17.080;2024-01-10T16:21:30;-6.76;78.08
69281;SHT31;56392;51.082;17.080;2024-01-10T16:26:53;-6.85;78.33
69281;SHT31;56392;51.082;17.080;2024-01-10T16:32:18;-6.86;78.12
69281;SHT31;56392;51.082;17.080;2024-01-10T16:37:41;-6.95;78.13
69281;SHT31;56392;51.082;17.080;2024-01-10T16:43:05;-7.00;79.00
69281;SHT31;56392;51.082;17.080;2024-01-10T16:48:30;-7.07;79.13
69281;SHT31;56392;51.082;17.080;2024-01-10T16:53:55;-7.07;79.41
69281;SHT31;56392;51.082;17.080;2024-01-10T16:59:18;-7.10;79.43
69281;SHT31;56392;51.082;17.080;2024-01-10T17:04:44;-7.15;79.62
69281;SHT31;56392;51.082;17.080;2024-01-10T17:10:08;-7.12;79.42
69281;SHT31;56392;51.082;17.080;2024-01-10T17:15:31;-7.15;79.59
69281;SHT31;56392;51.082;17.080;2024-01-10T17:20:56;-7.20;79.92
69281;SHT31;56392;51.082;17.080;2024-01-10T17:26:19;-7.26;79.15
69281;SHT31;56392;51.082;17.080;2024-01-10T17:31:42;-7.31;79.34
69281;SHT31;56392;51.082;17.080;2024-01-10T17:37:06;-7.33;79.33
69281;SHT31;56392;51.082;17.080;2024-01-10T17:42:29;-7.38;79.98
69281;SHT31;56392;51.082;17.080;2024-01-10T17:47:52;-7.41;79.36
69281;SHT31;56392;51.082;17.080;2024-01-10T17:53:17;-7.46;79.82
69281;SHT31;56392;51.082;17.080;2024-01-10T17:58:40;-7.47;79.23
69281;SHT31;56392;51.082;17.080;2024-01-10T18:04:03;-7.47;79.10
69281;SHT31;56392;51.082;17.080;2024-01-10T18:09:28;-7.48;79.71
69281;SHT31;56392;51.082;17.080;2024-01-10T18:14:51;-7.52;79.75
69281;SHT31;56392;51.082;17.080;2024-01-10T18:20:15;-7.55;79.93
69281;SHT31;56392;51.082;17.080;2024-01-10T18:25:40;-7.60;79.59
69281;SHT31;56392;51.082;17.080;2024-01-10T18:31:03;-7.62;79.43
69281;SHT31;56392;51.082;17.080;2024-01-10T18:36:26;-7.61;79.40
69281;SHT31;56392;51.082;17.080;2024-01-10T18:41:53;-7.75;79.95
69281;SHT31;56392;51.082;17.080;2024-01-10T18:47:16;-7.87;80.47
69281;SHT31;56392;51.082;17.080;2024-01-10T18:52:39;-7.95;80.59
69281;SHT31;56392;51.082;17.080;2024-01-10T18:58:04;-8.02;80.67
69281;SHT31;56392;51.082;17.080;2024-01-10T19:03:31;-8.08;80.62
69281;SHT31;56392;51.082;17.080;2024-01-10T19:08:54;-8.15;80.59
69281;SHT31;56392;51.082;17.080;2024-01-10T19:14:19;-8.13;80.99
69281;SHT31;56392;51.082;17.080;2024-01-10T19:19:42;-8.18;80.77
69281;SHT31;56392;51.082;17.080;2024-01-10T19:25:15;-8.22;81.00
69281;SHT31;56392;51.082;17.080;2024-01-10T19:30:41;-8.23;81.41
69281;SHT31;56392;51.082;17.080;2024-01-10T19:36:07;-8.29;81.40
69281;SHT31;56392;51.082;17.080;2024-01-10T19:41:31;-8.32;81.63
69281;SHT31;56392;51.082;17.080;2024-01-10T19:47:01;-8.33;81.92
69281;SHT31;56392;51.082;17.080;2024-01-10T19:52:26;-8.36;82.01
69281;SHT31;56392;51.082;17.080;2024-01-10T19:57:51;-8.39;82.00
69281;SHT31;56392;51.082;17.080;2024-01-10T20:03:16;-8.44;82.08
69281;SHT31;56392;51.082;17.080;2024-01-10T20:08:40;-8.51;82.09
69281;SHT31;56392;51.082;17.080;2024-01-10T20:14:03;-8.54;82.34
69281;SHT31;56392;51.082;17.080;2024-01-10T20:19:30;-8.54;82.45
69281;SHT31;56392;51.082;17.080;2024-01-10T20:24:54;-8.50;82.61
69281;SHT31;56392;51.082;17.080;2024-01-10T20:30:18;-8.47;82.51
69281;SHT31;56392;51.082;17.080;2024-01-10T20:35:42;-8.50;82.25
69281;SHT31;56392;51.082;17.080;2024-01-10T20:41:07;-8.50;82.24
69281;SHT31;56392;51.082;17.080;2024-01-10T20:46:30;-8.53;82.29
69281;SHT31;56392;51.082;17.080;2024-01-10T20:51:54;-8.50;82.13
69281;SHT31;56392;51.082;17.080;2024-01-10T20:57:20;-8.51;82.09
69281;SHT31;56392;51.082;17.080;2024-01-10T21:02:45;-8.53;82.29
69281;SHT31;56392;51.082;17.080;2024-01-10T21:08:10;-8.53;82.31
69281;SHT31;56392;51.082;17.080;2024-01-10T21:13:33;-8.57;82.28
69281;SHT31;56392;51.082;17.080;2024-01-10T21:18:56;-8.57;82.32
69281;SHT31;56392;51.082;17.080;2024-01-10T21:24:22;-8.58;82.52
69281;SHT31;56392;51.082;17.080;2024-01-10T21:29:45;-8.61;82.98
69281;SHT31;56392;51.082;17.080;2024-01-10T21:35:08;-8.63;82.89
69281;SHT31;56392;51.082;17.080;2024-01-10T21:40:33;-8.63;82.91
69281;SHT31;56392;51.082;17.080;2024-01-10T21:45:56;-8.58;83.09
69281;SHT31;56392;51.082;17.080;2024-01-10T21:51:19;-8.56;82.83
69281;SHT31;56392;51.082;17.080;2024-01-10T21:56:43;-8.57;82.58
69281;SHT31;56392;51.082;17.080;2024-01-10T22:02:06;-8.58;82.73
69281;SHT31;56392;51.082;17.080;2024-01-10T22:07:30;-8.61;82.62
69281;SHT31;56392;51.082;17.080;2024-01-10T22:12:54;-8.67;82.84
69281;SHT31;56392;51.082;17.080;2024-01-10T22:18:17;-8.76;82.85
69281;SHT31;56392;51.082;17.080;2024-01-10T22:23:40;-8.76;82.88
69281;SHT31;56392;51.082;17.080;2024-01-10T22:29:05;-8.81;82.74
69281;SHT31;56392;51.082;17.080;2024-01-10T22:34:28;-8.85;83.16
69281;SHT31;56392;51.082;17.080;2024-01-10T22:39:51;-8.90;83.35
69281;SHT31;56392;51.082;17.080;2024-01-10T22:45:15;-8.98;83.34
69281;SHT31;56392;51.082;17.080;2024-01-10T22:50:39;-9.08;83.41
69281;SHT31;56392;51.082;17.080;2024-01-10T22:56:03;-9.15;83.59
69281;SHT31;56392;51.082;17.080;2024-01-10T23:01:27;-9.21;83.51
69281;SHT31;56392;51.082;17.080;2024-01-10T23:06:52;-9.21;83.54
69281;SHT31;56392;51.082;17.080;2024-01-10T23:12:15;-9.16;83.72
69281;SHT31;56392;51.082;17.080;2024-01-10T23:17:40;-9.14;83.59
69281;SHT31;56392;51.082;17.080;2024-01-10T23:23:04;-9.09;83.67
69281;SHT31;56392;51.082;17.080;2024-01-10T23:28:27;-9.08;83.46
69281;SHT31;56392;51.082;17.080;2024-01-10T23:33:52;-9.08;83.49
69281;SHT31;56392;51.082;17.080;2024-01-10T23:39:15;-9.04;83.49
69281;SHT31;56392;51.082;17.080;2024-01-10T23:44:38;-9.01;83.48
69281;SHT31;56392;51.082;17.080;2024-01-10T23:50:04;-8.97;83.57
69281;SHT31;56392;51.082;17.080;2024-01-10T23:55:28;-8.94;83.57
